sensor_id;sensor_type;location;lat;lon;timestamp;P1;durP1;ratioP1;P2;durP2;ratioP2
56321;SDS011;42227;6.376;-10.782;2024-01-07T00:02:24;133.50;;;88.90;;
56321;SDS011;42227;6.376;-10.782;2024-01-07T00:04:53;143.13;;;92.63;;
56321;SDS011;42227;6.376;-10.782;2024-01-07T00:07:22;156.73;;;93.15;;
56321;SDS011;42227;6.376;-10.782;2024-01-07T00:09:50;153.25;;;91.75;;
56321;SDS011;42227;6.376;-10.782;2024-01-07T00:12:19;168.65;;;101.32;;
56321;SDS011;42227;6.376;-10.782;2024-01-07T00:14:48;211.90;;;114.40;;
56321;SDS011;42227;6.376;-10.782;2024-01-07T00:17:17;190.98;;;117.50;;
56321;SDS011;42227;6.376;-10.782;2024-01-07T00:19:45;200.38;;;119.57;;
56321;SDS011;42227;6.376;-10.782;2024-01-07T00:22:14;189.27;;;117.45;;
56321;SDS011;42227;6.376;-10.782;2024-01-07T00:24:42;187.13;;;115.40;;
56321;SDS011;42227;6.376;-10.782;2024-01-07T00:27:11;163.95;;;109.15;;
56321;SDS011;42227;6.376;-10.782;2024-01-07T00:29:40;177.77;;;111.78;;
56321;SDS011;42227;6.376;-10.782;2024-01-07T00:32:08;175.52;;;107.20;;
56321;SDS011;42227;6.376;-10.782;2024-01-07T00:34:36;177.13;;;111.57;;
56321;SDS011;42227;6.376;-10.782;2024-01-07T00:37:05;160.10;;;100.85;;
56321;SDS011;42227;6.376;-10.782;2024-01-07T00:39:33;142.43;;;93.10;;
56321;SDS011;42227;6.376;-10.782;2024-01-07T00:42:03;131.95;;;89.88;;
56321;SDS011;42227;6.376;-10.782;2024-01-07T00:44:31;129.30;;;80.70;;
56321;SDS011;42227;6.376;-10.782;2024-01-07T00:47:00;104.28;;;67.22;;
56321;SDS011;42227;6.376;-10.782;2024-01-07T00:49:28;106.63;;;61.63;;
56321;SDS011;42227;6.376;-10.782;2024-01-07T00:51:56;105.45;;;62.22;;
56321;SDS011;42227;6.376;-10.782;2024-01-07T00:54:25;82.82;;;50.83;;
56321;SDS011;42227;6.376;-10.782;2024-01-07T00:56:53;87.90;;;54.38;;
56321;SDS011;42227;6.376;-10.782;2024-01-07T00:59:22;105.75;;;66.22;;
56321;SDS011;42227;6.376;-10.782;2024-01-07T01:01:50;115.25;;;66.13;;
56321;SDS011;42227;6.376;-10.782;2024-01-07T01:04:19;128.38;;;87.10;;
56321;SDS011;42227;6.376;-10.782;2024-01-07T01:06:48;130.57;;;83.78;;
56321;SDS011;42227;6.376;-10.782;2024-01-07T01:09:16;126.70;;;85.22;;
56321;SDS011;42227;6.376;-10.782;2024-01-07T01:11:45;131.15;;;81.05;;
56321;SDS011;42227;6.376;-10.782;2024-01-07T01:14:13;123.10;;;78.82;;
56321;SDS011;42227;6.376;-10.782;2024-01-07T01:16:42;126.00;;;73.93;;
56321;SDS011;42227;6.376;-10.782;2024-01-07T01:19:11;131.90;;;72.28;;
56321;SDS011;42227;6.376;-10.782;2024-01-07T01:21:39;122.97;;;68.40;;
56321;SDS011;42227;6.376;-10.782;2024-01-07T01:24:07;105.25;;;71.78;;
56321;SDS011;42227;6.376;-10.782;2024-01-07T01:26:36;104.60;;;61.83;;
56321;SDS011;42227;6.376;-10.782;2024-01-07T01:29:04;197.25;;;109.57;;
56321;SDS011;42227;6.376;-10.782;2024-01-07T01:31:33;200.82;;;121.07;;
56321;SDS011;42227;6.376;-10.782;2024-01-07T01:34:01;179.05;;;106.80;;
56321;SDS011;42227;6.376;-10.782;2024-01-07T01:36:33;167.57;;;96.50;;
56321;SDS011;42227;6.376;-10.782;2024-01-07T01:39:01;164.40;;;90.90;;
56321;SDS011;42227;6.376;-10.782;2024-01-07T01:41:30;163.52;;;94.53;;
56321;SDS011;42227;6.376;-10.782;2024-01-07T01:44:00;190.50;;;105.75;;
56321;SDS011;42227;6.376;-10.782;2024-01-07T01:46:29;214.25;;;124.68;;
56321;SDS011;42227;6.376;-10.782;2024-01-07T01:48:57;221.52;;;139.88;;
56321;SDS011;42227;6.376;-10.782;2024-01-07T01:51:27;271.38;;;168.50;;
56321;SDS011;42227;6.376;-10.782;2024-01-07T01:53:56;324.60;;;184.90;;
56321;SDS011;42227;6.376;-10.782;2024-01-07T01:56:24;309.58;;;193.05;;
56321;SDS011;42227;6.376;-10.782;2024-01-07T01:58:55;278.95;;;174.32;;
56321;SDS011;42227;6.376;-10.782;2024-01-07T02:01:24;268.38;;;170.98;;
56321;SDS011;42227;6.376;-10.782;2024-01-07T02:03:53;227.02;;;136.43;;
56321;SDS011;42227;6.376;-10.782;2024-01-07T02:06:21;217.85;;;142.02;;
56321;SDS011;42227;6.376;-10.782;2024-01-07T02:08:50;239.25;;;146.95;;
56321;SDS011;42227;6.376;-10.782;2024-01-07T02:11:20;251.85;;;168.30;;
56321;SDS011;42227;6.376;-10.782;2024-01-07T02:13:49;269.63;;;174.68;;
56321;SDS011;42227;6.376;-10.782;2024-01-07T02:16:18;235.27;;;149.25;;
56321;SDS011;42227;6.376;-10.782;2024-01-07T02:18:46;218.85;;;142.13;;
56321;SDS011;42227;6.376;-10.782;2024-01-07T02:21:15;216.90;;;141.50;;
56321;SDS011;42227;6.376;-10.782;2024-01-07T02:23:43;189.57;;;121.68;;
56321;SDS011;42227;6.376;-10.782;2024-01-07T02:26:12;187.13;;;114.38;;
56321;SDS011;42227;6.376;-10.782;2024-01-07T02:28:40;162.68;;;109.68;;
56321;SDS011;42227;6.376;-10.782;2024-01-07T02:31:08;164.80;;;114.60;;
56321;SDS011;42227;6.376;-10.782;2024-01-07T02:33:37;173.63;;;110.72;;
56321;SDS011;42227;6.376;-10.782;2024-01-07T02:36:06;169.75;;;105.60;;
56321;SDS011;42227;6.376;-10.782;2024-01-07T02:38:34;164.50;;;106.65;;
56321;SDS011;42227;6.376;-10.782;2024-01-07T02:41:03;163.35;;;108.43;;
56321;SDS011;42227;6.376;-10.782;2024-01-07T02:43:32;166.82;;;111.28;;
56321;SDS011;42227;6.376;-10.782;2024-01-07T02:46:00;158.35;;;107.57;;
56321;SDS011;42227;6.376;-10.782;2024-01-07T02:48:28;150.77;;;100.30;;
56321;SDS011;42227;6.376;-10.782;2024-01-07T02:50:57;162.75;;;105.05;;
56321;SDS011;42227;6.376;-10.782;2024-01-07T02:53:25;145.25;;;104.20;;
56321;SDS011;42227;6.376;-10.782;2024-01-07T02:55:53;164.75;;;100.30;;
56321;SDS011;42227;6.376;-10.782;2024-01-07T02:58:22;144.93;;;96.72;;
56321;SDS011;42227;6.376;-10.782;2024-01-07T03:00:50;153.05;;;100.90;;
56321;SDS011;42227;6.376;-10.782;2024-01-07T03:03:19;148.48;;;98.20;;
56321;SDS011;42227;6.376;-10.782;2024-01-07T03:05:47;138.50;;;95.97;;
56321;SDS011;42227;6.376;-10.782;2024-01-07T03:08:16;140.95;;;94.97;;
56321;SDS011;42227;6.376;-10.782;2024-01-07T03:10:45;146.20;;;99.40;;
56321;SDS011;42227;6.376;-10.782;2024-01-07T03:13:13;143.27;;;92.13;;
56321;SDS011;42227;6.376;-10.782;2024-01-07T03:15:41;141.90;;;88.90;;
56321;SDS011;42227;6.376;-10.782;2024-01-07T03:18:10;131.95;;;86.93;;
56321;SDS011;42227;6.376;-10.782;2024-01-07T03:20:38;142.15;;;92.68;;
56321;SDS011;42227;6.376;-10.782;2024-01-07T03:23:07;137.10;;;90.65;;
56321;SDS011;42227;6.376;-10.782;2024-01-07T03:25:35;117.82;;;83.28;;
56321;SDS011;42227;6.376;-10.782;2024-01-07T03:28:03;122.28;;;82.57;;
56321;SDS011;42227;6.376;-10.782;2024-01-07T03:30:32;131.70;;;80.45;;
56321;SDS011;42227;6.376;-10.782;2024-01-07T03:33:01;131.43;;;80.40;;
56321;SDS011;42227;6.376;-10.782;2024-01-07T03:35:29;119.13;;;80.15;;
56321;SDS011;42227;6.376;-10.782;2024-01-07T03:37:57;122.68;;;77.22;;
56321;SDS011;42227;6.376;-10.782;2024-01-07T03:40:26;117.47;;;78.97;;
56321;SDS011;42227;6.376;-10.782;2024-01-07T03:42:54;116.97;;;79.82;;
56321;SDS011;42227;6.376;-10.782;2024-01-07T03:45:23;101.40;;;68.72;;
56321;SDS011;42227;6.376;-10.782;2024-01-07T03:47:51;119.47;;;72.82;;
56321;SDS011;42227;6.376;-10.782;2024-01-07T03:50:20;95.68;;;73.10;;
56321;SDS011;42227;6.376;-10.782;2024-01-07T03:52:48;105.80;;;70.43;;
56321;SDS011;42227;6.376;-10.782;2024-01-07T03:55:17;104.40;;;71.68;;
56321;SDS011;42227;6.376;-10.782;2024-01-07T03:57:45;106.10;;;68.95;;
56321;SDS011;42227;6.376;-10.782;2024-01-07T04:00:14;95.53;;;68.00;;
56321;SDS011;42227;6.376;-10.782;2024-01-07T04:02:42;103.15;;;68.07;;
56321;SDS011;42227;6.376;-10.782;2024-01-07T04:05:12;93.32;;;65.47;;
56321;SDS011;42227;6.376;-10.782;2024-01-07T04:07:41;101.15;;;68.38;;
56321;SDS011;42227;6.376;-10.782;2024-01-07T04:10:09;87.35;;;61.30;;
56321;SDS011;42227;6.376;-10.782;2024-01-07T04:12:37;105.20;;;66.15;;
56321;SDS011;42227;6.376;-10.782;2024-01-07T04:15:06;112.00;;;69.10;;
56321;SDS011;42227;6.376;-10.782;2024-01-07T04:17:35;118.75;;;74.50;;
56321;SDS011;42227;6.376;-10.782;2024-01-07T04:20:03;118.53;;;75.88;;
56321;SDS011;42227;6.376;-10.782;2024-01-07T04:22:33;97.55;;;65.38;;
56321;SDS011;42227;6.376;-10.782;2024-01-07T04:25:02;109.55;;;67.00;;
56321;SDS011;42227;6.376;-10.782;2024-01-07T04:27:31;88.05;;;62.25;;
56321;SDS011;42227;6.376;-10.782;2024-01-07T04:29:59;101.28;;;65.95;;
56321;SDS011;42227;6.376;-10.782;2024-01-07T04:32:28;86.05;;;61.40;;
56321;SDS011;42227;6.376;-10.782;2024-01-07T04:34:57;86.28;;;57.10;;
56321;SDS011;42227;6.376;-10.782;2024-01-07T04:37:25;87.75;;;56.72;;
56321;SDS011;42227;6.376;-10.782;2024-01-07T04:39:54;80.45;;;57.15;;
56321;SDS011;42227;6.376;-10.782;2024-01-07T04:42:22;79.05;;;55.38;;
56321;SDS011;42227;6.376;-10.782;2024-01-07T04:44:51;81.90;;;55.72;;
56321;SDS011;42227;6.376;-10.782;2024-01-07T04:47:23;90.68;;;59.08;;
56321;SDS011;42227;6.376;-10.782;2024-01-07T04:49:56;81.53;;;56.78;;
56321;SDS011;42227;6.376;-10.782;2024-01-07T04:52:25;76.10;;;54.47;;
56321;SDS011;42227;6.376;-10.782;2024-01-07T04:54:54;84.80;;;58.92;;
56321;SDS011;42227;6.376;-10.782;2024-01-07T04:57:23;84.80;;;56.35;;
56321;SDS011;42227;6.376;-10.782;2024-01-07T04:59:52;73.13;;;50.55;;
56321;SDS011;42227;6.376;-10.782;2024-01-07T05:02:21;65.97;;;46.30;;
56321;SDS011;42227;6.376;-10.782;2024-01-07T05:04:52;64.75;;;43.63;;
56321;SDS011;42227;6.376;-10.782;2024-01-07T05:07:21;59.20;;;43.00;;
56321;SDS011;42227;6.376;-10.782;2024-01-07T05:09:49;63.80;;;41.30;;
56321;SDS011;42227;6.376;-10.782;2024-01-07T05:12:18;61.67;;;38.80;;
56321;SDS011;42227;6.376;-10.782;2024-01-07T05:14:46;54.05;;;35.30;;
56321;SDS011;42227;6.376;-10.782;2024-01-07T05:17:14;49.88;;;34.53;;
56321;SDS011;42227;6.376;-10.782;2024-01-07T05:19:43;57.97;;;35.05;;
56321;SDS011;42227;6.376;-10.782;2024-01-07T05:22:11;50.65;;;34.13;;
56321;SDS011;42227;6.376;-10.782;2024-01-07T05:24:40;65.85;;;39.60;;
56321;SDS011;42227;6.376;-10.782;2024-01-07T05:27:08;55.83;;;37.38;;
56321;SDS011;42227;6.376;-10.782;2024-01-07T05:29:37;55.20;;;34.78;;
56321;SDS011;42227;6.376;-10.782;2024-01-07T05:32:05;66.28;;;36.70;;
56321;SDS011;42227;6.376;-10.782;2024-01-07T05:34:34;48.05;;;36.10;;
56321;SDS011;42227;6.376;-10.782;2024-01-07T05:37:02;71.13;;;44.45;;
56321;SDS011;42227;6.376;-10.782;2024-01-07T05:39:31;62.30;;;44.45;;
56321;SDS011;42227;6.376;-10.782;2024-01-07T05:41:59;79.75;;;46.05;;
56321;SDS011;42227;6.376;-10.782;2024-01-07T05:44:27;74.57;;;50.67;;
56321;SDS011;42227;6.376;-10.782;2024-01-07T05:46:56;69.88;;;45.30;;
56321;SDS011;42227;6.376;-10.782;2024-01-07T05:49:24;76.80;;;48.88;;
56321;SDS011;42227;6.376;-10.782;2024-01-07T05:51:53;67.38;;;46.17;;
56321;SDS011;42227;6.376;-10.782;2024-01-07T05:54:21;75.13;;;47.42;;
56321;SDS011;42227;6.376;-10.782;2024-01-07T05:56:50;66.60;;;47.85;;
56321;SDS011;42227;6.376;-10.782;2024-01-07T05:59:19;63.58;;;46.70;;
56321;SDS011;42227;6.376;-10.782;2024-01-07T06:01:47;64.43;;;42.78;;
56321;SDS011;42227;6.376;-10.782;2024-01-07T06:04:16;51.15;;;37.85;;
56321;SDS011;42227;6.376;-10.782;2024-01-07T06:06:44;52.47;;;38.13;;
56321;SDS011;42227;6.376;-10.782;2024-01-07T06:09:17;52.75;;;37.97;;
56321;SDS011;42227;6.376;-10.782;2024-01-07T06:11:45;64.43;;;37.97;;
56321;SDS011;42227;6.376;-10.782;2024-01-07T06:14:13;64.45;;;37.55;;
56321;SDS011;42227;6.376;-10.782;2024-01-07T06:16:42;49.00;;;35.42;;
56321;SDS011;42227;6.376;-10.782;2024-01-07T06:19:10;59.92;;;39.83;;
56321;SDS011;42227;6.376;-10.782;2024-01-07T06:21:39;53.42;;;37.97;;
56321;SDS011;42227;6.376;-10.782;2024-01-07T06:24:08;63.53;;;39.63;;
56321;SDS011;42227;6.376;-10.782;2024-01-07T06:26:36;49.80;;;34.20;;
56321;SDS011;42227;6.376;-10.782;2024-01-07T06:29:04;49.92;;;35.65;;
56321;SDS011;42227;6.376;-10.782;2024-01-07T06:31:33;60.67;;;36.33;;
56321;SDS011;42227;6.376;-10.782;2024-01-07T06:34:02;58.22;;;37.17;;
56321;SDS011;42227;6.376;-10.782;2024-01-07T06:36:30;55.35;;;34.30;;
56321;SDS011;42227;6.376;-10.782;2024-01-07T06:38:58;52.42;;;34.13;;
56321;SDS011;42227;6.376;-10.782;2024-01-07T06:41:27;46.97;;;34.08;;
56321;SDS011;42227;6.376;-10.782;2024-01-07T06:43:55;45.30;;;30.85;;
56321;SDS011;42227;6.376;-10.782;2024-01-07T06:46:24;43.38;;;31.00;;
56321;SDS011;42227;6.376;-10.782;2024-01-07T06:48:52;45.20;;;31.38;;
56321;SDS011;42227;6.376;-10.782;2024-01-07T06:51:20;48.50;;;32.17;;
56321;SDS011;42227;6.376;-10.782;2024-01-07T06:53:49;47.55;;;33.53;;
56321;SDS011;42227;6.376;-10.782;2024-01-07T06:56:17;56.78;;;33.30;;
56321;SDS011;42227;6.376;-10.782;2024-01-07T06:58:45;46.22;;;31.35;;
56321;SDS011;42227;6.376;-10.782;2024-01-07T07:01:17;58.15;;;29.00;;
56321;SDS011;42227;6.376;-10.782;2024-01-07T07:03:48;52.33;;;30.58;;
56321;SDS011;42227;6.376;-10.782;2024-01-07T07:06:16;47.53;;;28.85;;
56321;SDS011;42227;6.376;-10.782;2024-01-07T07:08:45;52.70;;;28.17;;
56321;SDS011;42227;6.376;-10.782;2024-01-07T07:11:14;59.58;;;30.35;;
56321;SDS011;42227;6.376;-10.782;2024-01-07T07:13:43;39.40;;;30.02;;
56321;SDS011;42227;6.376;-10.782;2024-01-07T07:16:11;46.08;;;28.58;;
56321;SDS011;42227;6.376;-10.782;2024-01-07T07:18:40;39.63;;;25.92;;
56321;SDS011;42227;6.376;-10.782;2024-01-07T07:21:08;29.30;;;22.45;;
56321;SDS011;42227;6.376;-10.782;2024-01-07T07:23:36;30.20;;;21.90;;
56321;SDS011;42227;6.376;-10.782;2024-01-07T07:26:05;31.83;;;22.98;;
56321;SDS011;42227;6.376;-10.782;2024-01-07T07:28:33;33.70;;;26.27;;
56321;SDS011;42227;6.376;-10.782;2024-01-07T07:31:02;39.42;;;24.83;;
56321;SDS011;42227;6.376;-10.782;2024-01-07T07:33:30;35.95;;;25.88;;
56321;SDS011;42227;6.376;-10.782;2024-01-07T07:35:59;53.10;;;26.05;;
56321;SDS011;42227;6.376;-10.782;2024-01-07T07:38:27;40.05;;;27.92;;
56321;SDS011;42227;6.376;-10.782;2024-01-07T07:40:55;49.78;;;29.27;;
56321;SDS011;42227;6.376;-10.782;2024-01-07T07:43:24;47.88;;;34.03;;
56321;SDS011;42227;6.376;-10.782;2024-01-07T07:45:53;42.42;;;29.88;;
56321;SDS011;42227;6.376;-10.782;2024-01-07T07:48:21;43.55;;;28.20;;
56321;SDS011;42227;6.376;-10.782;2024-01-07T07:50:50;38.40;;;23.95;;
56321;SDS011;42227;6.376;-10.782;2024-01-07T07:53:18;40.80;;;22.73;;
56321;SDS011;42227;6.376;-10.782;2024-01-07T07:55:46;30.25;;;21.77;;
56321;SDS011;42227;6.376;-10.782;2024-01-07T07:58:15;27.08;;;20.05;;
56321;SDS011;42227;6.376;-10.782;2024-01-07T08:00:43;26.33;;;18.83;;
56321;SDS011;42227;6.376;-10.782;2024-01-07T08:03:12;28.13;;;18.55;;
56321;SDS011;42227;6.376;-10.782;2024-01-07T08:05:40;26.42;;;19.55;;
56321;SDS011;42227;6.376;-10.782;2024-01-07T08:08:09;29.05;;;21.27;;
56321;SDS011;42227;6.376;-10.782;2024-01-07T08:10:37;29.90;;;21.55;;
56321;SDS011;42227;6.376;-10.782;2024-01-07T08:13:06;39.30;;;22.90;;
56321;SDS011;42227;6.376;-10.782;2024-01-07T08:15:34;36.42;;;23.33;;
56321;SDS011;42227;6.376;-10.782;2024-01-07T08:18:03;28.63;;;19.90;;
56321;SDS011;42227;6.376;-10.782;2024-01-07T08:20:32;31.25;;;21.75;;
56321;SDS011;42227;6.376;-10.782;2024-01-07T08:23:01;40.65;;;23.02;;
56321;SDS011;42227;6.376;-10.782;2024-01-07T08:25:29;30.42;;;20.80;;
56321;SDS011;42227;6.376;-10.782;2024-01-07T08:27:57;46.05;;;24.55;;
56321;SDS011;42227;6.376;-10.782;2024-01-07T08:30:26;32.63;;;23.00;;
56321;SDS011;42227;6.376;-10.782;2024-01-07T08:32:54;34.30;;;23.92;;
56321;SDS011;42227;6.376;-10.782;2024-01-07T08:35:23;37.80;;;26.08;;
56321;SDS011;42227;6.376;-10.782;2024-01-07T08:37:53;41.67;;;26.15;;
56321;SDS011;42227;6.376;-10.782;2024-01-07T08:40:22;53.65;;;26.40;;
56321;SDS011;42227;6.376;-10.782;2024-01-07T08:42:50;29.35;;;22.60;;
56321;SDS011;42227;6.376;-10.782;2024-01-07T08:45:19;36.10;;;26.05;;
56321;SDS011;42227;6.376;-10.782;2024-01-07T08:47:47;38.35;;;21.88;;
56321;SDS011;42227;6.376;-10.782;2024-01-07T08:50:16;47.05;;;25.45;;
56321;SDS011;42227;6.376;-10.782;2024-01-07T08:52:44;34.10;;;18.83;;
56321;SDS011;42227;6.376;-10.782;2024-01-07T08:55:12;29.13;;;18.42;;
56321;SDS011;42227;6.376;-10.782;2024-01-07T08:57:41;33.15;;;17.60;;
56321;SDS011;42227;6.376;-10.782;2024-01-07T09:00:09;29.95;;;22.60;;
56321;SDS011;42227;6.376;-10.782;2024-01-07T09:02:38;31.35;;;21.73;;
56321;SDS011;42227;6.376;-10.782;2024-01-07T09:05:09;38.63;;;20.25;;
56321;SDS011;42227;6.376;-10.782;2024-01-07T09:07:38;24.23;;;17.30;;
56321;SDS011;42227;6.376;-10.782;2024-01-07T09:10:07;33.13;;;16.85;;
56321;SDS011;42227;6.376;-10.782;2024-01-07T09:12:36;27.70;;;16.83;;
56321;SDS011;42227;6.376;-10.782;2024-01-07T09:15:05;27.90;;;16.83;;
56321;SDS011;42227;6.376;-10.782;2024-01-07T09:17:35;22.05;;;17.10;;
56321;SDS011;42227;6.376;-10.782;2024-01-07T09:20:04;28.13;;;15.82;;
56321;SDS011;42227;6.376;-10.782;2024-01-07T09:22:36;21.83;;;14.13;;
56321;SDS011;42227;6.376;-10.782;2024-01-07T09:25:07;27.02;;;15.27;;
56321;SDS011;42227;6.376;-10.782;2024-01-07T09:27:36;20.52;;;15.20;;
56321;SDS011;42227;6.376;-10.782;2024-01-07T09:30:05;19.58;;;14.90;;
56321;SDS011;42227;6.376;-10.782;2024-01-07T09:32:34;26.30;;;16.27;;
56321;SDS011;42227;6.376;-10.782;2024-01-07T09:35:04;29.13;;;15.75;;
56321;SDS011;42227;6.376;-10.782;2024-01-07T09:37:33;27.98;;;15.23;;
56321;SDS011;42227;6.376;-10.782;2024-01-07T09:40:02;18.58;;;13.00;;
56321;SDS011;42227;6.376;-10.782;2024-01-07T09:42:31;29.40;;;14.55;;
56321;SDS011;42227;6.376;-10.782;2024-01-07T09:45:02;21.08;;;12.90;;
56321;SDS011;42227;6.376;-10.782;2024-01-07T09:47:31;23.75;;;13.02;;
56321;SDS011;42227;6.376;-10.782;2024-01-07T09:50:00;22.17;;;13.38;;
56321;SDS011;42227;6.376;-10.782;2024-01-07T09:52:28;21.90;;;13.45;;
56321;SDS011;42227;6.376;-10.782;2024-01-07T09:54:58;15.65;;;13.00;;
56321;SDS011;42227;6.376;-10.782;2024-01-07T09:57:29;24.55;;;12.77;;
56321;SDS011;42227;6.376;-10.782;2024-01-07T09:59:58;17.35;;;11.68;;
56321;SDS011;42227;6.376;-10.782;2024-01-07T10:02:38;19.40;;;11.68;;
56321;SDS011;42227;6.376;-10.782;2024-01-07T10:05:07;16.90;;;9.18;;
56321;SDS011;42227;6.376;-10.782;2024-01-07T10:07:35;17.70;;;10.60;;
56321;SDS011;42227;6.376;-10.782;2024-01-07T10:10:16;18.67;;;10.77;;
56321;SDS011;42227;6.376;-10.782;2024-01-07T10:12:45;19.85;;;10.38;;
56321;SDS011;42227;6.376;-10.782;2024-01-07T10:15:16;14.52;;;11.07;;
56321;SDS011;42227;6.376;-10.782;2024-01-07T10:17:45;34.92;;;12.73;;
56321;SDS011;42227;6.376;-10.782;2024-01-07T10:20:14;14.60;;;9.27;;
56321;SDS011;42227;6.376;-10.782;2024-01-07T10:22:50;29.83;;;11.20;;
56321;SDS011;42227;6.376;-10.782;2024-01-07T10:25:20;19.63;;;11.77;;
56321;SDS011;42227;6.376;-10.782;2024-01-07T10:27:49;28.50;;;10.88;;
56321;SDS011;42227;6.376;-10.782;2024-01-07T10:30:17;17.92;;;11.02;;
56321;SDS011;42227;6.376;-10.782;2024-01-07T10:32:46;26.60;;;11.05;;
56321;SDS011;42227;6.376;-10.782;2024-01-07T10:35:16;21.80;;;11.50;;
56321;SDS011;42227;6.376;-10.782;2024-01-07T10:37:49;14.38;;;10.13;;
56321;SDS011;42227;6.376;-10.782;2024-01-07T10:40:17;18.08;;;9.57;;
56321;SDS011;42227;6.376;-10.782;2024-01-07T10:42:49;12.23;;;7.90;;
56321;SDS011;42227;6.376;-10.782;2024-01-07T10:45:18;16.98;;;9.88;;
56321;SDS011;42227;6.376;-10.782;2024-01-07T10:47:56;12.25;;;9.15;;
56321;SDS011;42227;6.376;-10.782;2024-01-07T10:50:27;14.60;;;9.07;;
56321;SDS011;42227;6.376;-10.782;2024-01-07T10:52:57;19.33;;;10.48;;
56321;SDS011;42227;6.376;-10.782;2024-01-07T10:55:33;14.68;;;8.95;;
56321;SDS011;42227;6.376;-10.782;2024-01-07T10:58:02;15.63;;;9.95;;
56321;SDS011;42227;6.376;-10.782;2024-01-07T11:00:32;23.42;;;11.13;;
56321;SDS011;42227;6.376;-10.782;2024-01-07T11:03:17;13.80;;;8.95;;
56321;SDS011;42227;6.376;-10.782;2024-01-07T11:06:04;13.52;;;9.18;;
56321;SDS011;42227;6.376;-10.782;2024-01-07T11:09:02;17.10;;;9.63;;
56321;SDS011;42227;6.376;-10.782;2024-01-07T11:11:50;19.17;;;11.30;;
56321;SDS011;42227;6.376;-10.782;2024-01-07T11:14:38;13.80;;;11.40;;
56321;SDS011;42227;6.376;-10.782;2024-01-07T11:17:09;13.70;;;8.23;;
56321;SDS011;42227;6.376;-10.782;2024-01-07T11:19:38;23.50;;;9.70;;
56321;SDS011;42227;6.376;-10.782;2024-01-07T11:22:25;14.70;;;9.02;;
56321;SDS011;42227;6.376;-10.782;2024-01-07T11:24:59;18.65;;;8.88;;
56321;SDS011;42227;6.376;-10.782;2024-01-07T11:27:30;13.43;;;8.07;;
56321;SDS011;42227;6.376;-10.782;2024-01-07T11:32:38;32.08;;;14.32;;
56321;SDS011;42227;6.376;-10.782;2024-01-07T11:35:48;29.08;;;18.00;;
56321;SDS011;42227;6.376;-10.782;2024-01-07T11:38:24;15.52;;;9.93;;
56321;SDS011;42227;6.376;-10.782;2024-01-07T11:40:52;17.17;;;10.45;;
56321;SDS011;42227;6.376;-10.782;2024-01-07T11:43:23;20.40;;;9.83;;
56321;SDS011;42227;6.376;-10.782;2024-01-07T11:45:51;19.70;;;11.10;;
56321;SDS011;42227;6.376;-10.782;2024-01-07T11:48:21;24.17;;;11.27;;
56321;SDS011;42227;6.376;-10.782;2024-01-07T11:50:50;24.15;;;11.02;;
56321;SDS011;42227;6.376;-10.782;2024-01-07T11:53:23;23.85;;;12.73;;
56321;SDS011;42227;6.376;-10.782;2024-01-07T11:55:52;15.50;;;10.43;;
56321;SDS011;42227;6.376;-10.782;2024-01-07T11:58:22;17.92;;;9.20;;
56321;SDS011;42227;6.376;-10.782;2024-01-07T12:00:50;22.83;;;11.30;;
56321;SDS011;42227;6.376;-10.782;2024-01-07T12:03:20;14.35;;;9.25;;
56321;SDS011;42227;6.376;-10.782;2024-01-07T12:05:49;17.58;;;9.40;;
56321;SDS011;42227;6.376;-10.782;2024-01-07T12:08:17;13.95;;;10.25;;
56321;SDS011;42227;6.376;-10.782;2024-01-07T12:10:46;13.80;;;8.63;;
56321;SDS011;42227;6.376;-10.782;2024-01-07T12:13:17;18.98;;;9.45;;
56321;SDS011;42227;6.376;-10.782;2024-01-07T12:15:45;19.05;;;10.70;;
56321;SDS011;42227;6.376;-10.782;2024-01-07T12:18:14;11.10;;;8.77;;
56321;SDS011;42227;6.376;-10.782;2024-01-07T12:20:54;21.65;;;9.60;;
56321;SDS011;42227;6.376;-10.782;2024-01-07T12:23:24;17.27;;;8.68;;
56321;SDS011;42227;6.376;-10.782;2024-01-07T12:25:53;25.75;;;10.73;;
56321;SDS011;42227;6.376;-10.782;2024-01-07T12:28:34;24.13;;;10.15;;
56321;SDS011;42227;6.376;-10.782;2024-01-07T12:31:03;15.40;;;10.43;;
56321;SDS011;42227;6.376;-10.782;2024-01-07T12:33:33;25.27;;;8.73;;
56321;SDS011;42227;6.376;-10.782;2024-01-07T12:36:01;13.65;;;8.38;;
56321;SDS011;42227;6.376;-10.782;2024-01-07T12:38:30;24.95;;;10.38;;
56321;SDS011;42227;6.376;-10.782;2024-01-07T12:40:59;14.80;;;8.48;;
56321;SDS011;42227;6.376;-10.782;2024-01-07T12:43:27;17.70;;;12.50;;
56321;SDS011;42227;6.376;-10.782;2024-01-07T12:45:56;16.98;;;9.95;;
56321;SDS011;42227;6.376;-10.782;2024-01-07T12:48:24;15.20;;;8.77;;
56321;SDS011;42227;6.376;-10.782;2024-01-07T12:50:53;21.40;;;10.82;;
56321;SDS011;42227;6.376;-10.782;2024-01-07T12:53:21;32.58;;;12.18;;
56321;SDS011;42227;6.376;-10.782;2024-01-07T12:55:50;28.13;;;10.73;;
56321;SDS011;42227;6.376;-10.782;2024-01-07T12:58:19;17.00;;;10.98;;
56321;SDS011;42227;6.376;-10.782;2024-01-07T13:00:48;30.55;;;13.43;;
56321;SDS011;42227;6.376;-10.782;2024-01-07T13:03:17;14.82;;;10.98;;
56321;SDS011;42227;6.376;-10.782;2024-01-07T13:05:46;18.40;;;9.93;;
56321;SDS011;42227;6.376;-10.782;2024-01-07T13:08:15;22.13;;;14.73;;
56321;SDS011;42227;6.376;-10.782;2024-01-07T13:10:43;26.35;;;11.75;;
56321;SDS011;42227;6.376;-10.782;2024-01-07T13:13:13;20.70;;;9.70;;
56321;SDS011;42227;6.376;-10.782;2024-01-07T13:15:42;13.30;;;10.32;;
56321;SDS011;42227;6.376;-10.782;2024-01-07T13:18:11;18.20;;;10.23;;
56321;SDS011;42227;6.376;-10.782;2024-01-07T13:20:40;14.68;;;9.77;;
56321;SDS011;42227;6.376;-10.782;2024-01-07T13:23:08;15.98;;;10.32;;
56321;SDS011;42227;6.376;-10.782;2024-01-07T13:25:38;17.70;;;11.00;;
56321;SDS011;42227;6.376;-10.782;2024-01-07T13:28:06;26.80;;;10.95;;
56321;SDS011;42227;6.376;-10.782;2024-01-07T13:30:35;24.27;;;11.82;;
56321;SDS011;42227;6.376;-10.782;2024-01-07T13:33:04;29.58;;;12.40;;
56321;SDS011;42227;6.376;-10.782;2024-01-07T13:35:34;19.58;;;11.20;;
56321;SDS011;42227;6.376;-10.782;2024-01-07T13:38:02;21.23;;;10.43;;
56321;SDS011;42227;6.376;-10.782;2024-01-07T13:40:31;17.13;;;9.40;;
56321;SDS011;42227;6.376;-10.782;2024-01-07T13:42:59;19.17;;;12.35;;
56321;SDS011;42227;6.376;-10.782;2024-01-07T13:45:28;12.48;;;10.07;;
56321;SDS011;42227;6.376;-10.782;2024-01-07T13:47:56;15.65;;;10.45;;
56321;SDS011;42227;6.376;-10.782;2024-01-07T13:50:25;22.20;;;10.77;;
56321;SDS011;42227;6.376;-10.782;2024-01-07T13:52:54;26.45;;;11.23;;
56321;SDS011;42227;6.376;-10.782;2024-01-07T13:55:22;25.30;;;8.98;;
56321;SDS011;42227;6.376;-10.782;2024-01-07T13:57:51;16.20;;;10.75;;
56321;SDS011;42227;6.376;-10.782;2024-01-07T14:00:20;30.35;;;11.15;;
56321;SDS011;42227;6.376;-10.782;2024-01-07T14:02:49;16.92;;;11.93;;
56321;SDS011;42227;6.376;-10.782;2024-01-07T14:05:17;32.60;;;13.07;;
56321;SDS011;42227;6.376;-10.782;2024-01-07T14:07:47;16.10;;;10.82;;
56321;SDS011;42227;6.376;-10.782;2024-01-07T14:10:16;27.60;;;12.73;;
56321;SDS011;42227;6.376;-10.782;2024-01-07T14:12:46;17.33;;;11.30;;
56321;SDS011;42227;6.376;-10.782;2024-01-07T14:15:14;20.90;;;11.32;;
56321;SDS011;42227;6.376;-10.782;2024-01-07T14:17:43;18.88;;;11.93;;
56321;SDS011;42227;6.376;-10.782;2024-01-07T14:20:11;23.48;;;13.48;;
56321;SDS011;42227;6.376;-10.782;2024-01-07T14:22:40;22.92;;;15.57;;